createdAt,value
2022-09-21T00:01:42.464Z,8.50
2022-09-21T00:04:11.103Z,8.50
2022-09-21T00:06:39.666Z,8.43
2022-09-21T00:09:09.726Z,8.36
2022-09-21T00:11:38.755Z,8.32
2022-09-21T00:14:10.615Z,8.29
2022-09-21T00:16:40.441Z,8.20
2022-09-21T00:19:09.365Z,8.22
2022-09-21T00:21:39.616Z,8.26
2022-09-21T00:24:10.028Z,8.27
2022-09-21T00:26:38.649Z,8.23
2022-09-21T00:29:08.243Z,8.23
2022-09-21T00:31:37.101Z,8.29
2022-09-21T00:34:07.878Z,8.26
2022-09-21T00:36:36.836Z,8.20
2022-09-21T00:39:05.481Z,8.19
2022-09-21T00:41:36.160Z,8.20
2022-09-21T00:44:29.235Z,8.38
2022-09-21T00:47:02.693Z,8.33
2022-09-21T00:49:34.229Z,8.26
2022-09-21T00:52:05.862Z,8.27
2022-09-21T00:54:42.037Z,8.29
2022-09-21T00:57:12.711Z,8.18
2022-09-21T00:59:43.351Z,8.14
2022-09-21T01:02:12.422Z,8.17
2022-09-21T01:04:40.959Z,8.14
2022-09-21T01:07:13.014Z,8.11
2022-09-21T01:09:43.804Z,8.05
2022-09-21T01:12:26.812Z,8.02
2022-09-21T01:15:13.299Z,8.04
2022-09-21T01:17:48.273Z,8.03
2022-09-21T01:20:58.193Z,8.04
2022-09-21T01:23:49.789Z,7.94
2022-09-21T01:26:27.260Z,7.93
2022-09-21T01:29:11.353Z,7.92
2022-09-21T01:31:43.452Z,7.94
2022-09-21T01:34:18.701Z,7.98
2022-09-21T01:36:50.501Z,8.02
2022-09-21T01:39:22.900Z,8.08
2022-09-21T01:41:52.743Z,8.18
2022-09-21T01:44:30.386Z,8.08
2022-09-21T01:47:05.415Z,8.03
2022-09-21T01:49:37.825Z,7.92
2022-09-21T01:52:14.443Z,7.92
2022-09-21T01:54:48.851Z,7.90
2022-09-21T01:57:25.620Z,7.92
2022-09-21T01:59:58.379Z,7.85
2022-09-21T02:02:33.427Z,7.90
2022-09-21T02:05:04.268Z,7.96
2022-09-21T02:07:33.972Z,7.96
2022-09-21T02:10:03.344Z,7.92
2022-09-21T02:12:33.284Z,7.85
2022-09-21T02:15:04.094Z,7.81
2022-09-21T02:17:42.508Z,7.81
2022-09-21T02:20:20.430Z,7.89
2022-09-21T02:23:04.648Z,7.82
2022-09-21T02:25:41.351Z,7.81
2022-09-21T02:28:16.015Z,7.76
2022-09-21T02:30:54.985Z,7.77
2022-09-21T02:33:27.913Z,7.82
2022-09-21T02:36:02.132Z,7.76
2022-09-21T02:38:36.649Z,7.76
2022-09-21T02:41:09.762Z,7.72
2022-09-21T02:43:43.122Z,7.71
2022-09-21T02:46:17.459Z,7.75
2022-09-21T02:48:50.014Z,7.64
2022-09-21T02:51:20.944Z,7.64
2022-09-21T02:53:54.609Z,7.62
2022-09-21T02:56:23.845Z,7.54
2022-09-21T02:58:55.892Z,7.54
2022-09-21T03:01:27.164Z,7.50
2022-09-21T03:03:55.482Z,7.55
2022-09-21T03:06:24.012Z,7.60
2022-09-21T03:08:52.385Z,7.72
2022-09-21T03:11:21.610Z,7.67
2022-09-21T03:13:49.908Z,7.62
2022-09-21T03:16:18.531Z,7.69
2022-09-21T03:18:48.668Z,7.71
2022-09-21T03:21:17.150Z,7.76
2022-09-21T03:23:45.414Z,7.83
2022-09-21T03:26:13.698Z,7.86
2022-09-21T03:28:41.971Z,7.77
2022-09-21T03:31:10.315Z,7.71
2022-09-21T03:33:38.576Z,7.69
2022-09-21T03:36:09.164Z,7.64
2022-09-21T03:38:37.884Z,7.69
2022-09-21T03:41:07.224Z,7.82
2022-09-21T03:43:35.519Z,7.82
2022-09-21T03:46:03.830Z,7.85
2022-09-21T03:48:32.741Z,7.84
2022-09-21T03:51:01.047Z,7.96
2022-09-21T03:53:30.693Z,7.89
2022-09-21T03:56:00.131Z,7.83
2022-09-21T03:58:28.390Z,7.76
2022-09-21T04:01:02.712Z,7.74
2022-09-21T04:03:31.450Z,7.73
2022-09-21T04:05:59.708Z,7.79
2022-09-21T04:08:28.160Z,7.83
2022-09-21T04:10:57.798Z,7.86
2022-09-21T04:13:26.072Z,7.94
2022-09-21T04:15:54.411Z,7.83
2022-09-21T04:18:22.689Z,7.79
2022-09-21T04:20:54.420Z,7.82
2022-09-21T04:23:23.029Z,7.82
2022-09-21T04:25:51.888Z,7.82
2022-09-21T04:28:22.800Z,7.78
2022-09-21T04:30:54.482Z,7.76
2022-09-21T04:33:23.989Z,7.81
2022-09-21T04:35:56.485Z,7.78
2022-09-21T04:38:25.161Z,7.81
2022-09-21T04:40:57.280Z,7.86
2022-09-21T04:43:27.473Z,7.91
2022-09-21T04:45:55.768Z,8.00
2022-09-21T04:48:24.054Z,7.87
2022-09-21T04:50:52.654Z,7.82
2022-09-21T04:53:20.877Z,7.78
2022-09-21T04:55:49.152Z,7.77
2022-09-21T04:58:21.264Z,7.85
2022-09-21T05:00:55.367Z,7.86
2022-09-21T05:03:24.124Z,7.92
2022-09-21T05:05:53.640Z,7.82
2022-09-21T05:08:42.723Z,7.67
2022-09-21T05:11:13.108Z,7.59
2022-09-21T05:13:41.700Z,7.59
2022-09-21T05:16:11.826Z,7.59
2022-09-21T05:18:40.679Z,7.64
2022-09-21T05:21:09.045Z,7.60
2022-09-21T05:23:37.270Z,7.62
2022-09-21T05:26:06.388Z,7.57
2022-09-21T05:28:39.672Z,7.53
2022-09-21T05:31:21.542Z,7.53
2022-09-21T05:33:53.361Z,7.55
2022-09-21T05:36:34.622Z,7.63
2022-09-21T05:39:03.390Z,7.72
2022-09-21T05:41:32.502Z,7.78
2022-09-21T05:44:01.567Z,7.70
2022-09-21T05:46:39.799Z,7.63
2022-09-21T05:49:18.228Z,7.59
2022-09-21T05:51:57.328Z,7.62
2022-09-21T05:54:38.445Z,7.67
2022-09-21T05:57:13.830Z,7.71
2022-09-21T05:59:55.573Z,7.63
2022-09-21T06:02:38.552Z,7.60
2022-09-21T06:05:11.554Z,7.54
2022-09-21T06:07:40.332Z,7.61
2022-09-21T06:10:10.008Z,7.71
2022-09-21T06:12:38.333Z,7.82
2022-09-21T06:15:07.958Z,7.76
2022-09-21T06:17:37.581Z,7.75
2022-09-21T06:20:07.548Z,7.79
2022-09-21T06:22:36.284Z,7.85
2022-09-21T06:25:04.826Z,7.93
2022-09-21T06:27:33.095Z,8.04
2022-09-21T06:30:01.537Z,8.06
2022-09-21T06:32:29.871Z,8.06
2022-09-21T06:34:59.598Z,8.13
2022-09-21T06:37:27.919Z,8.23
2022-09-21T06:39:56.193Z,8.36
2022-09-21T06:42:24.583Z,8.44
2022-09-21T06:44:52.781Z,8.59
2022-09-21T06:47:21.047Z,8.70
2022-09-21T06:49:49.333Z,8.86
2022-09-21T06:52:18.985Z,8.98
2022-09-21T06:54:47.829Z,9.09
2022-09-21T06:57:16.340Z,9.18
2022-09-21T06:59:45.115Z,9.32
2022-09-21T07:02:13.478Z,9.47
2022-09-21T07:04:41.816Z,9.59
2022-09-21T07:07:10.273Z,9.68
2022-09-21T07:12:29.629Z,9.95
2022-09-21T07:14:57.873Z,10.18
2022-09-21T07:17:26.190Z,10.38
2022-09-21T07:19:54.424Z,10.59
2022-09-21T07:22:22.680Z,10.84
2022-09-21T07:24:52.353Z,10.97
2022-09-21T07:27:20.551Z,11.12
2022-09-21T07:29:49.013Z,11.23
2022-09-21T07:32:17.330Z,11.39
2022-09-21T07:34:45.721Z,11.55
2022-09-21T07:37:15.143Z,11.59
2022-09-21T07:39:43.484Z,11.67
2022-09-21T07:42:13.076Z,11.76
2022-09-21T07:44:41.782Z,11.84
2022-09-21T07:47:10.175Z,11.92
2022-09-21T07:49:38.461Z,12.04
2022-09-21T07:52:10.639Z,12.21
2022-09-21T07:54:39.433Z,12.28
2022-09-21T07:57:25.029Z,12.35
2022-09-21T07:59:56.676Z,12.60
2022-09-21T08:02:25.192Z,12.51
2022-09-21T08:04:54.148Z,12.65
2022-09-21T08:07:22.433Z,12.72
2022-09-21T08:09:51.327Z,12.76
2022-09-21T08:12:20.611Z,12.88
2022-09-21T08:14:50.013Z,12.85
2022-09-21T08:17:19.884Z,13.07
2022-09-21T08:19:48.429Z,13.04
2022-09-21T08:22:19.970Z,13.10
2022-09-21T08:24:48.896Z,13.19
2022-09-21T08:27:17.294Z,13.17
2022-09-21T08:29:48.629Z,13.22
2022-09-21T08:32:39.331Z,13.36
2022-09-21T08:35:07.662Z,13.54
2022-09-21T08:37:38.013Z,13.37
2022-09-21T08:40:08.510Z,13.44
2022-09-21T08:42:44.707Z,13.74
2022-09-21T08:45:18.914Z,13.66
2022-09-21T08:47:50.570Z,13.90
2022-09-21T08:50:35.483Z,13.93
2022-09-21T08:53:08.555Z,14.01
2022-09-21T08:55:37.132Z,14.23
2022-09-21T08:58:07.414Z,14.26
2022-09-21T09:00:38.225Z,14.49
2022-09-21T09:03:37.335Z,14.64
2022-09-21T09:06:15.906Z,14.67
2022-09-21T09:09:18.289Z,14.73
2022-09-21T09:11:57.531Z,14.79
2022-09-21T09:14:42.196Z,14.72
2022-09-21T09:17:28.357Z,14.73
2022-09-21T09:20:00.263Z,14.86
2022-09-21T09:22:35.743Z,14.89
2022-09-21T09:25:07.289Z,14.97
2022-09-21T09:27:39.978Z,15.34
2022-09-21T09:30:17.653Z,15.45
2022-09-21T09:32:54.193Z,15.45
2022-09-21T09:35:35.051Z,15.59
2022-09-21T09:38:22.539Z,15.72
2022-09-21T09:41:06.702Z,15.82
2022-09-21T09:43:49.682Z,15.45
2022-09-21T09:46:23.577Z,15.58
2022-09-21T09:49:10.464Z,15.78
2022-09-21T09:51:40.863Z,15.68
2022-09-21T09:54:15.890Z,16.05
2022-09-21T09:56:44.892Z,16.15
2022-09-21T09:59:28.625Z,16.21
2022-09-21T10:02:03.435Z,16.19
2022-09-21T10:04:32.001Z,16.08
2022-09-21T10:07:00.418Z,16.06
2022-09-21T10:09:32.251Z,16.16
2022-09-21T10:12:08.100Z,16.37
2022-09-21T10:14:38.607Z,16.31
2022-09-21T10:17:09.181Z,16.34
2022-09-21T10:19:38.239Z,16.65
2022-09-21T10:22:06.888Z,16.65
2022-09-21T10:24:40.747Z,17.00
2022-09-21T10:27:14.605Z,17.35
2022-09-21T10:29:46.028Z,16.65
2022-09-21T10:32:26.452Z,16.78
2022-09-21T10:35:13.727Z,16.51
2022-09-21T10:37:43.206Z,16.03
2022-09-21T10:40:28.209Z,15.56
2022-09-21T10:42:59.917Z,15.34
2022-09-21T10:45:29.809Z,15.18
2022-09-21T10:48:00.582Z,15.02
2022-09-21T10:50:31.018Z,15.09
2022-09-21T10:53:02.134Z,14.96
2022-09-21T10:55:33.205Z,14.82
2022-09-21T10:58:01.974Z,14.69
2022-09-21T11:00:36.545Z,14.65
2022-09-21T11:03:34.728Z,14.60
2022-09-21T11:06:06.752Z,15.41
2022-09-21T11:08:41.371Z,15.93
2022-09-21T11:11:25.138Z,15.70
2022-09-21T11:14:01.139Z,15.26
2022-09-21T11:16:36.273Z,15.08
2022-09-21T11:19:21.106Z,14.79
2022-09-21T11:21:56.549Z,14.84
2022-09-21T11:24:32.436Z,15.67
2022-09-21T11:27:11.221Z,16.31
2022-09-21T11:29:49.030Z,16.65
2022-09-21T11:32:38.374Z,17.07
2022-09-21T11:35:27.626Z,17.37
2022-09-21T11:38:06.391Z,17.46
2022-09-21T11:40:54.474Z,17.82
2022-09-21T11:43:41.785Z,17.46
2022-09-21T11:46:20.934Z,17.60
2022-09-21T11:49:07.112Z,17.64
2022-09-21T11:51:46.250Z,17.64
2022-09-21T11:54:33.973Z,17.09
2022-09-21T11:57:09.359Z,17.25
2022-09-21T11:59:49.509Z,17.48
2022-09-21T12:02:35.980Z,17.31
2022-09-21T12:05:15.111Z,17.21
2022-09-21T12:08:02.376Z,17.53
2022-09-21T12:10:40.118Z,17.39
2022-09-21T12:13:17.183Z,17.90
2022-09-21T12:15:54.520Z,17.88
2022-09-21T12:18:33.786Z,17.98
2022-09-21T12:21:11.718Z,17.94
2022-09-21T12:23:44.508Z,17.62
2022-09-21T12:26:20.449Z,17.64
2022-09-21T12:28:52.553Z,17.28
2022-09-21T12:31:26.735Z,17.65
2022-09-21T12:33:58.521Z,17.85
2022-09-21T12:36:35.100Z,17.25
2022-09-21T12:39:14.766Z,17.65
2022-09-21T12:41:49.331Z,17.87
2022-09-21T12:44:24.003Z,18.39
2022-09-21T12:47:09.527Z,18.81
2022-09-21T12:49:43.690Z,18.78
2022-09-21T12:52:17.872Z,18.92
2022-09-21T12:54:53.819Z,18.87
2022-09-21T12:57:53.707Z,19.35
2022-09-21T13:00:22.319Z,19.28
2022-09-21T13:02:56.285Z,19.11
2022-09-21T13:05:35.512Z,19.05
2022-09-21T13:08:12.941Z,19.20
2022-09-21T13:10:49.234Z,19.08
2022-09-21T13:13:34.468Z,19.33
2022-09-21T13:16:04.660Z,19.10
2022-09-21T13:18:37.601Z,19.14
2022-09-21T13:21:19.714Z,19.00
2022-09-21T13:23:54.679Z,18.69
2022-09-21T13:26:36.917Z,18.87
2022-09-21T13:29:28.282Z,19.02
2022-09-21T13:32:00.380Z,18.71
2022-09-21T13:34:35.837Z,18.88
2022-09-21T13:37:28.555Z,17.94
2022-09-21T13:40:36.443Z,18.47
2022-09-21T13:43:24.246Z,18.74
2022-09-21T13:45:57.820Z,19.30
2022-09-21T13:48:30.474Z,19.48
2022-09-21T13:51:02.817Z,19.39
2022-09-21T13:53:35.934Z,19.27
2022-09-21T13:56:09.951Z,19.12
2022-09-21T13:58:44.155Z,19.76
2022-09-21T14:01:45.174Z,19.95
2022-09-21T14:04:19.517Z,20.07
2022-09-21T14:06:52.408Z,20.27
2022-09-21T14:09:25.763Z,20.51
2022-09-21T14:11:58.288Z,20.01
2022-09-21T14:14:31.532Z,19.68
2022-09-21T14:17:00.625Z,18.99
2022-09-21T14:20:08.788Z,18.29
2022-09-21T14:22:43.689Z,17.64
2022-09-21T14:25:49.026Z,17.19
2022-09-21T14:28:19.777Z,16.98
2022-09-21T14:30:56.683Z,16.71
2022-09-21T14:33:36.626Z,16.70
2022-09-21T14:36:09.852Z,16.61
2022-09-21T14:38:53.950Z,16.49
2022-09-21T14:41:25.412Z,16.48
2022-09-21T14:43:56.688Z,16.24
2022-09-21T14:46:59.669Z,16.20
2022-09-21T14:49:44.570Z,16.14
2022-09-21T14:52:31.133Z,16.26
2022-09-21T14:55:10.412Z,16.40
2022-09-21T14:58:01.079Z,16.46
2022-09-21T15:00:42.125Z,17.44
2022-09-21T15:03:45.825Z,19.94
2022-09-21T15:06:41.471Z,21.05
2022-09-21T15:10:04.973Z,22.33
2022-09-21T15:12:46.743Z,22.97
2022-09-21T15:15:28.470Z,22.49
2022-09-21T15:17:59.713Z,22.58
2022-09-21T15:20:30.049Z,22.33
2022-09-21T15:22:59.816Z,23.71
2022-09-21T15:25:30.196Z,22.54
2022-09-21T15:28:00.459Z,21.81
2022-09-21T15:30:33.257Z,21.96
2022-09-21T15:33:02.909Z,22.27
2022-09-21T15:35:33.275Z,22.31
2022-09-21T15:38:02.120Z,22.06
2022-09-21T15:40:33.158Z,21.50
2022-09-21T15:43:06.622Z,19.48
2022-09-21T15:45:39.413Z,18.34
2022-09-21T15:48:15.577Z,17.78
2022-09-21T15:50:58.379Z,17.52
2022-09-21T15:53:31.932Z,17.29
2022-09-21T15:56:01.169Z,17.01
2022-09-21T15:58:37.158Z,16.87
2022-09-21T16:01:11.765Z,16.77
2022-09-21T16:03:41.792Z,16.45
2022-09-21T16:06:25.974Z,16.54
2022-09-21T16:08:54.754Z,16.57
2022-09-21T16:11:40.027Z,16.65
2022-09-21T16:14:30.852Z,16.60
2022-09-21T16:17:08.065Z,16.48
2022-09-21T16:19:44.189Z,16.13
2022-09-21T16:22:13.863Z,16.22
2022-09-21T16:24:46.803Z,16.18
2022-09-21T16:27:18.705Z,16.12
2022-09-21T16:29:50.222Z,16.18
2022-09-21T16:32:28.952Z,16.21
2022-09-21T16:35:27.931Z,16.24
2022-09-21T16:37:57.601Z,16.20
2022-09-21T16:40:26.137Z,16.00
2022-09-21T16:42:54.723Z,16.03
2022-09-21T16:45:29.684Z,16.20
2022-09-21T16:47:59.301Z,16.31
2022-09-21T16:50:27.930Z,16.18
2022-09-21T16:52:56.288Z,16.00
2022-09-21T16:55:28.937Z,15.90
2022-09-21T16:57:57.904Z,15.58
2022-09-21T17:00:33.088Z,15.47
2022-09-21T17:03:02.358Z,15.40
2022-09-21T17:05:30.715Z,15.27
2022-09-21T17:08:00.606Z,15.12
2022-09-21T17:10:32.653Z,15.00
2022-09-21T17:13:01.053Z,14.93
2022-09-21T17:15:32.357Z,14.85
2022-09-21T17:18:00.918Z,14.73
2022-09-21T17:20:34.459Z,14.62
2022-09-21T17:23:03.320Z,14.50
2022-09-21T17:25:32.899Z,14.33
2022-09-21T17:28:01.632Z,14.29
2022-09-21T17:30:32.024Z,14.20
2022-09-21T17:33:01.235Z,14.13
2022-09-21T17:35:33.486Z,14.05
2022-09-21T17:38:02.408Z,13.93
2022-09-21T17:40:31.568Z,13.83
2022-09-21T17:43:10.657Z,13.75
2022-09-21T17:45:45.065Z,13.67
2022-09-21T17:48:19.806Z,13.61
2022-09-21T17:50:48.899Z,13.56
2022-09-21T17:53:37.095Z,13.47
2022-09-21T17:56:18.304Z,13.36
2022-09-21T17:58:50.090Z,13.32
2022-09-21T18:01:31.200Z,13.30
2022-09-21T18:04:00.617Z,13.19
2022-09-21T18:06:29.402Z,13.17
2022-09-21T18:08:58.290Z,13.08
2022-09-21T18:11:48.336Z,13.06
2022-09-21T18:14:28.079Z,12.99
2022-09-21T18:17:08.967Z,12.92
2022-09-21T18:19:46.990Z,12.85
2022-09-21T18:22:22.888Z,12.73
2022-09-21T18:24:53.030Z,12.70
2022-09-21T18:27:23.669Z,12.64
2022-09-21T18:29:52.537Z,12.53
2022-09-21T18:32:35.240Z,12.51
2022-09-21T18:35:19.593Z,12.46
2022-09-21T18:38:02.880Z,12.36
2022-09-21T18:40:38.363Z,12.33
2022-09-21T18:43:22.715Z,12.26
2022-09-21T18:45:57.032Z,12.25
2022-09-21T18:48:48.516Z,12.20
2022-09-21T18:51:24.437Z,12.16
2022-09-21T18:53:55.993Z,12.11
2022-09-21T18:56:25.257Z,12.07
2022-09-21T18:58:54.421Z,12.03
2022-09-21T19:01:23.958Z,11.96
2022-09-21T19:03:54.525Z,11.90
2022-09-21T19:06:37.582Z,11.85
2022-09-21T19:09:15.648Z,11.83
2022-09-21T19:11:48.684Z,11.79
2022-09-21T19:14:26.517Z,11.75
2022-09-21T19:17:07.812Z,11.72
2022-09-21T19:19:49.857Z,11.64
2022-09-21T19:22:27.616Z,11.63
2022-09-21T19:25:04.205Z,11.64
2022-09-21T19:27:39.993Z,11.57
2022-09-21T19:30:12.042Z,11.51
2022-09-21T19:32:45.599Z,11.45
2022-09-21T19:35:22.219Z,11.42
2022-09-21T19:37:52.567Z,11.36
2022-09-21T19:40:23.251Z,11.37
2022-09-21T19:43:20.847Z,11.32
2022-09-21T19:46:04.336Z,11.27
2022-09-21T19:48:42.690Z,11.19
2022-09-21T19:51:18.572Z,11.19
2022-09-21T19:54:15.708Z,11.13
2022-09-21T19:57:06.092Z,11.04
2022-09-21T19:59:44.402Z,11.00
2022-09-21T20:02:15.361Z,11.03
2022-09-21T20:04:50.781Z,10.98
2022-09-21T20:07:35.657Z,10.96
2022-09-21T20:10:22.211Z,10.94
2022-09-21T20:12:57.901Z,10.88
2022-09-21T20:15:34.573Z,10.83
2022-09-21T20:18:09.625Z,10.84
2022-09-21T20:20:38.241Z,10.82
2022-09-21T20:23:11.700Z,10.80
2022-09-21T20:25:47.440Z,10.78
2022-09-21T20:28:16.433Z,10.79
2022-09-21T20:30:45.910Z,10.68
2022-09-21T20:33:16.611Z,10.69
2022-09-21T20:35:45.049Z,10.62
2022-09-21T20:38:15.254Z,10.62
2022-09-21T20:40:44.709Z,10.53
2022-09-21T20:43:14.265Z,10.52
2022-09-21T20:45:50.361Z,10.48
2022-09-21T20:48:19.555Z,10.51
2022-09-21T20:50:50.492Z,10.51
2022-09-21T20:53:20.489Z,10.52
2022-09-21T20:55:55.140Z,10.46
2022-09-21T20:58:23.955Z,10.42
2022-09-21T21:00:57.954Z,10.36
2022-09-21T21:03:27.587Z,10.29
2022-09-21T21:06:07.224Z,10.34
2022-09-21T21:08:37.126Z,10.30
2022-09-21T21:11:05.711Z,10.25
2022-09-21T21:13:34.774Z,10.16
2022-09-21T21:16:07.072Z,10.13
2022-09-21T21:18:41.206Z,10.13
2022-09-21T21:21:09.632Z,10.11
2022-09-21T21:23:53.155Z,10.10
2022-09-21T21:26:33.366Z,10.09
2022-09-21T21:29:09.814Z,10.06
2022-09-21T21:31:38.244Z,10.00
2022-09-21T21:34:06.557Z,10.03
2022-09-21T21:36:35.802Z,10.03
2022-09-21T21:39:05.857Z,10.07
2022-09-21T21:41:34.713Z,10.03
2022-09-21T21:44:03.340Z,10.01
2022-09-21T21:46:31.780Z,10.00
2022-09-21T21:49:00.462Z,10.05
2022-09-21T21:51:28.903Z,10.01
2022-09-21T21:53:57.253Z,9.96
2022-09-21T21:56:27.027Z,9.95
2022-09-21T21:58:56.459Z,9.90
2022-09-21T22:01:27.251Z,9.91
2022-09-21T22:03:56.882Z,9.89
2022-09-21T22:06:26.040Z,9.82
2022-09-21T22:08:55.542Z,9.77
2022-09-21T22:11:25.274Z,9.74
2022-09-21T22:13:55.451Z,9.74
2022-09-21T22:16:25.895Z,9.71
2022-09-21T22:18:54.699Z,9.69
2022-09-21T22:21:24.404Z,9.70
2022-09-21T22:23:53.948Z,9.66
2022-09-21T22:26:23.741Z,9.67
2022-09-21T22:28:55.236Z,9.61
2022-09-21T22:31:26.540Z,9.62
2022-09-21T22:33:55.971Z,9.63
2022-09-21T22:36:25.963Z,9.60
2022-09-21T22:38:55.293Z,9.51
2022-09-21T22:41:26.086Z,9.46
2022-09-21T22:43:57.314Z,9.42
2022-09-21T22:46:27.263Z,9.44
2022-09-21T22:48:55.598Z,9.42
2022-09-21T22:51:24.608Z,9.44
2022-09-21T22:53:53.292Z,9.48
2022-09-21T22:56:23.179Z,9.45
2022-09-21T22:58:52.863Z,9.36
2022-09-21T23:01:25.549Z,9.34
2022-09-21T23:03:55.902Z,9.36
2022-09-21T23:06:26.796Z,9.32
2022-09-21T23:08:57.742Z,9.32
2022-09-21T23:11:28.476Z,9.27
2022-09-21T23:13:57.773Z,9.32
2022-09-21T23:16:29.295Z,9.30
2022-09-21T23:18:58.931Z,9.25
2022-09-21T23:21:28.691Z,9.17
2022-09-21T23:23:59.872Z,9.18
2022-09-21T23:26:32.764Z,9.16
2022-09-21T23:29:02.992Z,9.17
2022-09-21T23:31:33.529Z,9.15
2022-09-21T23:34:08.671Z,9.12
2022-09-21T23:36:37.696Z,9.09
2022-09-21T23:39:07.982Z,9.11
2022-09-21T23:41:37.390Z,9.12
2022-09-21T23:44:06.373Z,9.05
2022-09-21T23:46:38.379Z,9.06
2022-09-21T23:49:07.498Z,9.00
2022-09-21T23:51:36.444Z,8.95
2022-09-21T23:54:05.244Z,8.93
2022-09-21T23:56:34.312Z,8.88
2022-09-21T23:59:02.644Z,8.87
